Startpagina
METAR-TAF:

METAR-TAF

Vliegvelden :

Vliegbasis Woensdrecht

Woensdrecht, Nederland

breedte: 51-27N, lengte: 004-20E, hoogte: 20 m

Actueel weer

Dit bericht is 19 minuten geleden gemaakt, om 20:25 UTC
Wind 9 kt uit het noordwesten, variërend tussen het westzuidwesten en het noorden
Temperatuur 7°C
Vochtigheid 61%
Druk 1022 hPa
Zicht 10 km of meer
Weinig wolken op 4400 ft
Verspreide wolken op 5400 ft
Geheel bewolkt op 15000 ft

METAR: EHWO 232025Z AUTO 31009KT 250V360 9999 FEW044 SCT054 OVC150 07/00 Q1022 BLU

Tijdstip: 21:44 (20:44 UTC)


TAF: ontbreekt

Waarnemingen en weersverwachtingen van meer dan 4000 vliegvelden (METAR en TAF).

De beschikbare stations zijn de gele en rode punten op de kaart.

Ga met uw muis naar het station om de naam te zien.

Klik dan om waarnemingen en weersverwachtingen te zien.

kaart wijzigen: klik op de groene knoppen met een zwart kruis om in te zoomen, op de groene knop met een streepje om uit te zoomen of op de groene pijlen voor aangrenzende kaarten.


METAR-TAF: